Centennial, Wyoming
Current Conditions -  °F | °C
As of 12:53 AM on Tuesday 21 Oct 2014 (Local Time) from KLAR Reporting Station
Clear Clear  
Wind Chill: 33°   Ceiling: Unl
Heat Index: 38°   Visibility: 10mi
Dew Point: 31°   Wind: 7mph
Humidity: 76%   Direction: 190°S
Pressure: 30.13"   Gusts: NA
Location:  41.3°N, 106.14°W
Report Text: KLAR 210653Z AUTO 19006KT 10SM CLR 03/M01 A3013 RMK AO2 SLP131 T00331006 402061011
Loading
Personal Weather Stations






























Interactive Weather Map
Tropical Storm Tracking
New forecast layout! Learn more

10-Day Weather Forecast

Advertisements
Track Severe Weather on mobile